Time;durP1;ratioP1;P1;durP2;ratioP2;P2;SDS_P1;SDS_P2;PMS_P1;PMS_P2;Temp;Humidity;BMP_temperature;BMP_pressure;BME280_temperature;BME280_humidity;BME280_pressure;Samples;Min_cycle;Max_cycle;Signal;HPM_P1;HPM_P2
2022/09/08 00:01:42;;;;;;;;;;;21.00;42.60;;;;;;453098;263;1135;-51
2022/09/08 00:03:43;;;;;;;;;;;21.00;42.60;;;;;;453070;263;2182;-51
2022/09/08 00:05:44;;;;;;;;;;;21.00;42.70;;;;;;453177;262;1204;-51
2022/09/08 00:07:47;;;;;;;;;;;21.00;42.60;;;;;;452742;263;1133;-52
2022/09/08 00:09:47;;;;;;;;;;;21.00;42.70;;;;;;452584;263;2268;-51
2022/09/08 00:11:50;;;;;;;;;;;21.00;42.70;;;;;;453095;263;1085;-51
2022/09/08 00:13:50;;;;;;;;;;;21.00;42.60;;;;;;452982;262;2350;-51
2022/09/08 00:15:52;;;;;;;;;;;21.00;42.70;;;;;;452721;263;1143;-51
2022/09/08 00:17:52;;;;;;;;;;;21.00;42.70;;;;;;452865;263;2319;-51
2022/09/08 00:19:54;;;;;;;;;;;21.00;42.60;;;;;;453119;263;1056;-52
2022/09/08 00:21:56;;;;;;;;;;;21.00;42.60;;;;;;453080;263;1180;-51
2022/09/08 00:23:57;;;;;;;;;;;21.00;42.70;;;;;;452812;263;2221;-52
2022/09/08 00:25:58;;;;;;;;;;;21.00;42.70;;;;;;453117;263;1139;-52
2022/09/08 00:27:59;;;;;;;;;;;21.00;42.70;;;;;;453113;263;1120;-52
2022/09/08 00:30:00;;;;;;;;;;;21.00;42.60;;;;;;452732;263;1166;-51
2022/09/08 00:32:02;;;;;;;;;;;21.00;42.50;;;;;;452882;263;1108;-51
2022/09/08 00:34:03;;;;;;;;;;;21.00;42.60;;;;;;453129;263;1601;-51
2022/09/08 00:36:04;;;;;;;;;;;21.00;42.60;;;;;;453126;263;1094;-52
2022/09/08 00:38:06;;;;;;;;;;;21.00;42.50;;;;;;452930;263;1273;-51
2022/09/08 00:40:07;;;;;;;;;;;21.00;42.60;;;;;;453089;263;1248;-51
2022/09/08 00:42:08;;;;;;;;;;;21.00;42.50;;;;;;453103;263;1301;-51
2022/09/08 00:44:10;;;;;;;;;;;21.00;42.60;;;;;;452684;263;2209;-52
2022/09/08 00:46:12;;;;;;;;;;;21.00;42.60;;;;;;452707;263;1370;-52
2022/09/08 00:48:15;;;;;;;;;;;21.00;42.60;;;;;;452654;263;2159;-51
2022/09/08 00:50:14;;;;;;;;;;;21.00;42.50;;;;;;452499;263;1528;-51
2022/09/08 00:52:15;;;;;;;;;;;21.10;42.50;;;;;;453071;263;1321;-52
2022/09/08 00:54:17;;;;;;;;;;;21.00;42.60;;;;;;452941;263;1298;-52
2022/09/08 00:56:19;;;;;;;;;;;21.00;42.70;;;;;;453017;263;1263;-51
2022/09/08 00:58:19;;;;;;;;;;;21.00;42.80;;;;;;452637;263;1640;-51
2022/09/08 01:00:21;;;;;;;;;;;21.00;42.90;;;;;;453012;263;1238;-51
2022/09/08 01:02:23;;;;;;;;;;;21.00;42.80;;;;;;452882;262;1296;-52
2022/09/08 01:04:24;;;;;;;;;;;21.00;42.80;;;;;;453008;263;2138;-52
2022/09/08 01:12:43;;;;;;;;;;;21.00;42.70;;;;;;453111;263;1336;-51
2022/09/08 01:13:05;;;;;;;;;;;21.00;42.60;;;;;;453043;263;1263;-51
2022/09/08 01:15:06;;;;;;;;;;;21.00;42.60;;;;;;453022;263;1361;-51
2022/09/08 01:17:08;;;;;;;;;;;21.00;42.60;;;;;;453493;262;1199;-51
2022/09/08 01:19:09;;;;;;;;;;;21.00;42.50;;;;;;452879;263;1162;-51
2022/09/08 01:21:13;;;;;;;;;;;21.00;42.60;;;;;;453437;263;1264;-52
2022/09/08 01:23:12;;;;;;;;;;;21.00;42.60;;;;;;452948;263;2216;-51
2022/09/08 01:25:13;;;;;;;;;;;21.00;42.60;;;;;;452836;263;1262;-52
2022/09/08 01:27:14;;;;;;;;;;;21.00;42.60;;;;;;453448;263;1435;-51
2022/09/08 01:29:16;;;;;;;;;;;21.00;42.50;;;;;;453425;263;1294;-51
2022/09/08 01:31:17;;;;;;;;;;;21.00;42.50;;;;;;453479;262;1310;-51
2022/09/08 01:33:18;;;;;;;;;;;21.00;42.50;;;;;;453104;263;1252;-51
2022/09/08 01:35:20;;;;;;;;;;;21.00;42.50;;;;;;452934;263;1364;-52
2022/09/08 01:37:21;;;;;;;;;;;21.00;42.50;;;;;;453343;263;1244;-51
2022/09/08 01:39:22;;;;;;;;;;;21.00;42.50;;;;;;453174;262;1234;-52
2022/09/08 01:41:23;;;;;;;;;;;21.00;42.50;;;;;;453088;263;1259;-51
2022/09/08 01:43:25;;;;;;;;;;;21.00;42.40;;;;;;452875;263;2193;-52
2022/09/08 01:45:27;;;;;;;;;;;21.00;42.40;;;;;;453471;262;1366;-50
2022/09/08 01:47:29;;;;;;;;;;;21.00;42.30;;;;;;453463;262;1430;-51
2022/09/08 01:49:30;;;;;;;;;;;21.10;42.30;;;;;;453061;263;1292;-52
2022/09/08 01:51:31;;;;;;;;;;;21.00;42.40;;;;;;453114;262;1415;-51
2022/09/08 01:53:33;;;;;;;;;;;21.00;42.30;;;;;;453109;262;1564;-52
2022/09/08 01:55:34;;;;;;;;;;;21.00;42.30;;;;;;453430;262;1263;-52
2022/09/08 01:57:35;;;;;;;;;;;21.10;42.40;;;;;;453075;263;1286;-52
2022/09/08 01:59:37;;;;;;;;;;;21.10;42.30;;;;;;453059;263;1247;-52
2022/09/08 02:01:38;;;;;;;;;;;21.10;42.20;;;;;;453341;262;1413;-52
2022/09/08 02:03:40;;;;;;;;;;;21.10;42.30;;;;;;453171;262;2180;-52
2022/09/08 02:05:41;;;;;;;;;;;21.00;42.20;;;;;;452991;263;1909;-52
2022/09/08 02:07:42;;;;;;;;;;;21.10;42.30;;;;;;453057;263;1278;-52
2022/09/08 02:09:43;;;;;;;;;;;21.00;42.20;;;;;;452458;263;1460;-51
2022/09/08 02:11:48;;;;;;;;;;;21.00;42.30;;;;;;453901;262;1216;-52
2022/09/08 02:13:46;;;;;;;;;;;21.00;42.30;;;;;;454110;262;2257;-51
2022/09/08 02:15:47;;;;;;;;;;;21.00;42.30;;;;;;453970;262;1302;-52
2022/09/08 02:17:48;;;;;;;;;;;21.00;42.30;;;;;;453970;263;1255;-52
2022/09/08 02:19:51;;;;;;;;;;;21.00;42.30;;;;;;454367;262;1369;-52
2022/09/08 02:21:51;;;;;;;;;;;21.00;42.40;;;;;;454301;262;2361;-51
2022/09/08 02:23:52;;;;;;;;;;;21.00;42.50;;;;;;454074;262;2165;-51
2022/09/08 02:25:54;;;;;;;;;;;21.00;42.50;;;;;;453146;262;1246;-51
2022/09/08 02:27:56;;;;;;;;;;;21.00;42.50;;;;;;452722;263;1246;-51
2022/09/08 02:29:57;;;;;;;;;;;21.00;42.50;;;;;;453089;263;2160;-51
2022/09/08 02:31:58;;;;;;;;;;;21.00;42.50;;;;;;452781;263;1295;-51
2022/09/08 02:34:00;;;;;;;;;;;21.10;42.50;;;;;;452710;263;1230;-52
2022/09/08 02:36:01;;;;;;;;;;;21.00;42.40;;;;;;453064;263;1237;-51
2022/09/08 02:38:02;;;;;;;;;;;21.00;42.40;;;;;;452727;263;1392;-51
2022/09/08 02:40:04;;;;;;;;;;;21.00;42.50;;;;;;452817;263;1137;-51
2022/09/08 02:42:06;;;;;;;;;;;21.00;42.40;;;;;;453050;263;1232;-51
2022/09/08 02:44:07;;;;;;;;;;;21.00;42.30;;;;;;453063;263;2316;-51
2022/09/08 02:46:08;;;;;;;;;;;21.00;42.40;;;;;;452647;263;2500;-51
2022/09/08 02:48:09;;;;;;;;;;;21.00;42.40;;;;;;452716;263;1285;-51
2022/09/08 02:50:10;;;;;;;;;;;21.00;42.50;;;;;;452708;263;1146;-51
2022/09/08 02:52:12;;;;;;;;;;;21.00;42.40;;;;;;453075;263;1341;-52
2022/09/08 02:54:13;;;;;;;;;;;21.00;42.40;;;;;;452989;263;1528;-52
2022/09/08 02:56:15;;;;;;;;;;;21.00;42.40;;;;;;452800;263;1312;-51
2022/09/08 02:58:16;;;;;;;;;;;21.00;42.30;;;;;;452810;262;1267;-52
2022/09/08 03:00:17;;;;;;;;;;;21.00;42.30;;;;;;452795;263;1304;-51
2022/09/08 03:02:18;;;;;;;;;;;21.00;42.30;;;;;;453074;263;1366;-51
2022/09/08 03:04:20;;;;;;;;;;;21.00;42.30;;;;;;452669;263;2237;-52
2022/09/08 03:06:21;;;;;;;;;;;21.10;42.30;;;;;;453071;263;1402;-51
2022/09/08 03:08:23;;;;;;;;;;;21.00;42.20;;;;;;452901;263;1404;-52
2022/09/08 03:10:24;;;;;;;;;;;21.10;42.30;;;;;;452570;263;1652;-52
2022/09/08 03:12:26;;;;;;;;;;;21.00;42.20;;;;;;452671;263;1291;-51
2022/09/08 03:14:27;;;;;;;;;;;21.00;42.30;;;;;;452633;263;1587;-52
2022/09/08 03:16:28;;;;;;;;;;;21.00;42.30;;;;;;453063;263;1302;-51
2022/09/08 03:18:30;;;;;;;;;;;21.00;42.30;;;;;;453052;263;1297;-51
2022/09/08 03:20:31;;;;;;;;;;;21.00;42.30;;;;;;453066;263;1349;-52
2022/09/08 03:22:32;;;;;;;;;;;21.00;42.20;;;;;;452701;263;1389;-51
2022/09/08 03:24:34;;;;;;;;;;;21.00;42.20;;;;;;452707;263;2173;-51
2022/09/08 03:26:35;;;;;;;;;;;21.00;42.20;;;;;;452816;263;1284;-51
2022/09/08 03:28:38;;;;;;;;;;;21.10;42.30;;;;;;453034;263;1567;-51
2022/09/08 03:30:38;;;;;;;;;;;21.10;42.20;;;;;;452626;263;2381;-52
2022/09/08 03:32:39;;;;;;;;;;;21.00;42.20;;;;;;453062;263;1279;-51
2022/09/08 03:34:41;;;;;;;;;;;21.10;42.20;;;;;;453084;263;1219;-52
2022/09/08 03:36:42;;;;;;;;;;;21.10;42.20;;;;;;453103;263;1218;-52
2022/09/08 03:38:43;;;;;;;;;;;21.00;42.10;;;;;;453082;263;1235;-52
2022/09/08 03:40:44;;;;;;;;;;;21.00;42.10;;;;;;452893;263;1294;-51
2022/09/08 03:42:46;;;;;;;;;;;21.00;42.20;;;;;;453174;263;1273;-51
2022/09/08 03:44:47;;;;;;;;;;;21.00;42.20;;;;;;453071;263;2181;-51
2022/09/08 03:46:49;;;;;;;;;;;21.00;42.10;;;;;;453055;263;1418;-51
2022/09/08 03:48:50;;;;;;;;;;;21.00;42.30;;;;;;453089;263;1233;-51
2022/09/08 03:50:51;;;;;;;;;;;21.00;42.30;;;;;;453045;263;1259;-51
2022/09/08 03:52:52;;;;;;;;;;;21.00;42.50;;;;;;452705;263;1496;-52
2022/09/08 03:54:54;;;;;;;;;;;21.00;42.50;;;;;;452488;263;1309;-51
2022/09/08 03:56:55;;;;;;;;;;;21.00;42.50;;;;;;452591;263;1272;-51
2022/09/08 03:58:56;;;;;;;;;;;21.00;42.40;;;;;;453090;263;1323;-52
2022/09/08 04:01:00;;;;;;;;;;;21.00;42.40;;;;;;452649;263;1297;-51
2022/09/08 04:02:59;;;;;;;;;;;21.00;42.40;;;;;;452544;263;1966;-52
2022/09/08 04:05:00;;;;;;;;;;;21.00;42.40;;;;;;452703;263;2500;-51
2022/09/08 04:07:02;;;;;;;;;;;21.00;42.30;;;;;;452966;263;1476;-52
2022/09/08 04:09:03;;;;;;;;;;;21.00;42.30;;;;;;453037;263;1341;-52
2022/09/08 04:11:04;;;;;;;;;;;21.00;42.30;;;;;;452882;263;1444;-51
2022/09/08 04:13:06;;;;;;;;;;;21.00;42.30;;;;;;452686;263;1294;-51
2022/09/08 04:15:08;;;;;;;;;;;21.00;42.20;;;;;;452818;263;1307;-50
2022/09/08 04:17:08;;;;;;;;;;;21.00;42.30;;;;;;452492;263;2421;-51
2022/09/08 04:19:10;;;;;;;;;;;21.00;42.20;;;;;;453138;262;1403;-52
2022/09/08 04:21:11;;;;;;;;;;;21.10;42.20;;;;;;453117;263;1218;-51
2022/09/08 04:23:12;;;;;;;;;;;21.00;42.20;;;;;;452674;263;1383;-52
2022/09/08 04:25:14;;;;;;;;;;;21.10;42.30;;;;;;452945;263;2245;-51
2022/09/08 04:27:15;;;;;;;;;;;21.00;42.20;;;;;;452667;263;1244;-51
2022/09/08 04:29:16;;;;;;;;;;;21.00;42.20;;;;;;453127;262;1105;-52
2022/09/08 04:31:18;;;;;;;;;;;21.00;42.20;;;;;;452717;263;1295;-52
2022/09/08 04:33:19;;;;;;;;;;;21.10;42.20;;;;;;452620;263;1317;-51
2022/09/08 04:35:20;;;;;;;;;;;21.10;42.20;;;;;;453012;263;1218;-52
2022/09/08 04:37:22;;;;;;;;;;;21.10;42.10;;;;;;453167;262;1204;-52
2022/09/08 04:39:23;;;;;;;;;;;21.10;42.10;;;;;;452662;263;1210;-52
2022/09/08 04:41:24;;;;;;;;;;;21.00;42.10;;;;;;452942;263;1275;-51
2022/09/08 04:43:26;;;;;;;;;;;21.10;42.20;;;;;;453011;263;1237;-52
2022/09/08 04:45:27;;;;;;;;;;;21.10;42.10;;;;;;453077;263;2177;-51
2022/09/08 04:47:28;;;;;;;;;;;21.10;42.10;;;;;;452695;263;1230;-52
2022/09/08 04:49:30;;;;;;;;;;;21.10;42.10;;;;;;452923;263;1239;-51
2022/09/08 04:51:31;;;;;;;;;;;21.10;42.10;;;;;;452952;263;1183;-51
2022/09/08 04:53:32;;;;;;;;;;;21.10;42.10;;;;;;453059;263;1258;-51
2022/09/08 04:55:33;;;;;;;;;;;21.10;42.00;;;;;;452772;263;1229;-51
2022/09/08 04:57:35;;;;;;;;;;;21.10;42.10;;;;;;452743;263;1399;-51
2022/09/08 04:59:36;;;;;;;;;;;21.10;42.10;;;;;;453051;263;1262;-51
2022/09/08 05:01:37;;;;;;;;;;;21.00;42.10;;;;;;453044;263;1293;-52
2022/09/08 05:03:39;;;;;;;;;;;21.00;42.10;;;;;;452672;263;1329;-52
2022/09/08 05:05:40;;;;;;;;;;;21.00;42.00;;;;;;452439;263;2158;-52
2022/09/08 05:07:41;;;;;;;;;;;21.10;42.10;;;;;;452669;263;1355;-51
2022/09/08 05:09:44;;;;;;;;;;;21.00;42.00;;;;;;452796;263;1382;-52
2022/09/08 05:11:45;;;;;;;;;;;21.00;42.00;;;;;;452808;263;2320;-52
2022/09/08 05:13:46;;;;;;;;;;;21.00;42.10;;;;;;452966;263;1280;-51
2022/09/08 05:15:47;;;;;;;;;;;21.00;42.10;;;;;;453054;262;1315;-52
2022/09/08 05:17:49;;;;;;;;;;;21.00;42.10;;;;;;452731;262;1346;-52
2022/09/08 05:19:50;;;;;;;;;;;21.00;42.20;;;;;;453011;263;1297;-51
2022/09/08 05:21:51;;;;;;;;;;;21.00;42.30;;;;;;453030;263;1331;-51
2022/09/08 05:23:53;;;;;;;;;;;21.00;42.30;;;;;;452879;263;1193;-51
2022/09/08 05:25:54;;;;;;;;;;;21.00;42.20;;;;;;453009;262;2189;-51
2022/09/08 05:27:55;;;;;;;;;;;21.00;42.10;;;;;;452772;263;1250;-52
2022/09/08 05:29:57;;;;;;;;;;;21.00;42.10;;;;;;452318;263;1867;-52
2022/09/08 05:31:58;;;;;;;;;;;21.10;42.20;;;;;;452823;263;1333;-51
2022/09/08 05:33:59;;;;;;;;;;;21.00;42.10;;;;;;453016;263;1202;-51
2022/09/08 05:36:01;;;;;;;;;;;21.00;42.10;;;;;;452983;263;1304;-51
2022/09/08 05:38:02;;;;;;;;;;;21.00;42.10;;;;;;452885;263;1242;-51
2022/09/08 05:40:03;;;;;;;;;;;21.10;42.10;;;;;;452848;263;1320;-51
2022/09/08 05:42:05;;;;;;;;;;;21.00;42.10;;;;;;452776;263;1382;-51
2022/09/08 05:44:08;;;;;;;;;;;21.00;42.00;;;;;;453046;263;1347;-51
2022/09/08 05:46:08;;;;;;;;;;;21.00;42.20;;;;;;452887;263;2422;-51
2022/09/08 05:48:09;;;;;;;;;;;21.00;42.30;;;;;;452965;263;1605;-51
2022/09/08 05:50:10;;;;;;;;;;;21.00;42.50;;;;;;452906;263;1554;-52
2022/09/08 05:52:12;;;;;;;;;;;21.10;42.60;;;;;;452795;262;1259;-51
2022/09/08 05:54:13;;;;;;;;;;;21.10;42.50;;;;;;452905;263;1687;-52
2022/09/08 05:56:18;;;;;;;;;;;21.10;42.40;;;;;;452848;263;1366;-52
2022/09/08 05:58:15;;;;;;;;;;;21.10;42.40;;;;;;452370;263;2279;-51
2022/09/08 06:00:17;;;;;;;;;;;21.10;42.40;;;;;;452970;263;1178;-51
2022/09/08 06:02:18;;;;;;;;;;;21.10;42.30;;;;;;452618;263;1262;-51
2022/09/08 06:04:20;;;;;;;;;;;21.10;42.30;;;;;;452719;263;1360;-51
2022/09/08 06:06:21;;;;;;;;;;;21.10;42.30;;;;;;452548;263;2145;-51
2022/09/08 06:08:22;;;;;;;;;;;21.00;42.30;;;;;;453021;263;1271;-51
2022/09/08 06:10:24;;;;;;;;;;;21.00;42.50;;;;;;452638;263;1492;-52
2022/09/08 06:12:25;;;;;;;;;;;21.00;42.40;;;;;;452862;263;1365;-52
2022/09/08 06:14:26;;;;;;;;;;;21.10;42.40;;;;;;452865;263;1309;-51
2022/09/08 06:16:29;;;;;;;;;;;21.00;42.40;;;;;;452795;263;1263;-52
2022/09/08 06:18:29;;;;;;;;;;;21.10;42.50;;;;;;452792;263;2148;-51
2022/09/08 06:20:30;;;;;;;;;;;21.10;42.50;;;;;;452722;263;1362;-51
2022/09/08 06:22:32;;;;;;;;;;;21.10;42.50;;;;;;452898;263;1256;-51
2022/09/08 06:24:33;;;;;;;;;;;21.10;42.60;;;;;;452819;263;2205;-52
2022/09/08 06:26:34;;;;;;;;;;;21.10;42.60;;;;;;452573;262;1420;-51
2022/09/08 06:28:36;;;;;;;;;;;21.00;42.60;;;;;;452267;263;1300;-51
2022/09/08 06:30:37;;;;;;;;;;;21.10;42.80;;;;;;452471;263;1383;-51
2022/09/08 06:32:39;;;;;;;;;;;21.00;42.70;;;;;;452863;263;1315;-51
2022/09/08 06:34:40;;;;;;;;;;;21.10;42.80;;;;;;452407;263;1371;-52
2022/09/08 06:36:41;;;;;;;;;;;21.10;42.70;;;;;;452341;263;1284;-51
2022/09/08 06:38:42;;;;;;;;;;;21.00;42.80;;;;;;452535;263;1239;-51
2022/09/08 06:40:45;;;;;;;;;;;21.00;42.80;;;;;;452852;262;1252;-51
2022/09/08 06:42:45;;;;;;;;;;;21.00;42.80;;;;;;452567;263;2254;-52
2022/09/08 06:44:46;;;;;;;;;;;21.00;42.90;;;;;;452574;263;2173;-51
2022/09/08 06:46:48;;;;;;;;;;;21.00;43.00;;;;;;452310;263;1367;-52
2022/09/08 06:48:49;;;;;;;;;;;21.00;43.10;;;;;;452718;263;1256;-52
2022/09/08 06:50:50;;;;;;;;;;;21.00;43.20;;;;;;452452;263;1353;-51
2022/09/08 06:52:52;;;;;;;;;;;21.00;43.20;;;;;;452303;263;1322;-52
2022/09/08 06:54:53;;;;;;;;;;;21.00;43.10;;;;;;452651;262;1148;-51
2022/09/08 06:56:55;;;;;;;;;;;21.00;43.20;;;;;;452389;263;1492;-52
2022/09/08 06:58:56;;;;;;;;;;;21.00;43.30;;;;;;452341;262;1498;-51
2022/09/08 07:00:57;;;;;;;;;;;21.00;43.30;;;;;;452240;263;1247;-50
2022/09/08 07:02:58;;;;;;;;;;;21.00;43.20;;;;;;452330;263;1192;-52
2022/09/08 07:05:00;;;;;;;;;;;21.00;43.30;;;;;;452488;263;2173;-51
2022/09/08 07:07:01;;;;;;;;;;;21.00;43.20;;;;;;452451;263;1335;-51
2022/09/08 07:09:03;;;;;;;;;;;21.00;43.30;;;;;;452178;263;1239;-52
2022/09/08 07:11:04;;;;;;;;;;;21.00;43.20;;;;;;452202;263;1200;-51
2022/09/08 07:13:05;;;;;;;;;;;21.00;43.50;;;;;;452661;262;1266;-51
2022/09/08 07:15:06;;;;;;;;;;;21.00;43.40;;;;;;452039;263;1313;-51
2022/09/08 07:17:08;;;;;;;;;;;21.10;43.40;;;;;;452041;263;1183;-51
2022/09/08 07:19:09;;;;;;;;;;;21.00;43.20;;;;;;451968;263;1092;-51
2022/09/08 07:21:10;;;;;;;;;;;21.00;43.40;;;;;;452372;263;1261;-51
2022/09/08 07:23:12;;;;;;;;;;;21.00;43.30;;;;;;452406;263;1337;-52
2022/09/08 07:25:13;;;;;;;;;;;21.00;43.40;;;;;;452329;263;2212;-51
2022/09/08 07:27:14;;;;;;;;;;;21.10;43.40;;;;;;452464;263;1234;-51
2022/09/08 07:29:16;;;;;;;;;;;21.10;43.50;;;;;;452166;263;1331;-51
2022/09/08 07:31:17;;;;;;;;;;;21.00;43.40;;;;;;452287;263;1215;-51
2022/09/08 07:33:19;;;;;;;;;;;21.00;43.40;;;;;;452632;263;1220;-52
2022/09/08 07:35:20;;;;;;;;;;;21.00;43.40;;;;;;452604;263;1543;-52
2022/09/08 07:37:22;;;;;;;;;;;21.10;43.40;;;;;;452459;263;1204;-51
2022/09/08 07:39:23;;;;;;;;;;;21.00;43.40;;;;;;452088;263;1278;-52
2022/09/08 07:41:25;;;;;;;;;;;21.00;43.40;;;;;;452368;263;1246;-51
2022/09/08 07:43:26;;;;;;;;;;;21.00;43.40;;;;;;452435;263;1364;-51
2022/09/08 07:45:27;;;;;;;;;;;21.00;43.50;;;;;;452434;263;2182;-51
2022/09/08 07:47:29;;;;;;;;;;;21.00;43.70;;;;;;452607;263;1257;-51
2022/09/08 07:49:30;;;;;;;;;;;21.00;43.60;;;;;;452465;263;1269;-51
2022/09/08 07:51:32;;;;;;;;;;;21.00;43.60;;;;;;452587;263;1221;-51
2022/09/08 07:53:33;;;;;;;;;;;21.00;43.60;;;;;;452285;263;1334;-52
2022/09/08 07:55:34;;;;;;;;;;;21.00;43.60;;;;;;452236;263;1329;-52
2022/09/08 07:57:36;;;;;;;;;;;21.00;43.70;;;;;;452362;263;1172;-51
2022/09/08 07:59:37;;;;;;;;;;;21.00;43.60;;;;;;452383;263;1252;-51
2022/09/08 08:01:38;;;;;;;;;;;21.00;43.80;;;;;;452641;262;1080;-51
2022/09/08 08:03:39;;;;;;;;;;;21.00;43.80;;;;;;452262;263;1120;-51
2022/09/08 08:05:41;;;;;;;;;;;21.00;43.80;;;;;;452234;263;2225;-50
2022/09/08 08:07:42;;;;;;;;;;;21.00;43.80;;;;;;452488;263;1170;-52
2022/09/08 08:09:44;;;;;;;;;;;21.00;43.90;;;;;;452346;263;1395;-51
2022/09/08 08:11:45;;;;;;;;;;;21.00;43.90;;;;;;452197;263;1264;-51
2022/09/08 08:13:46;;;;;;;;;;;21.10;44.00;;;;;;452663;263;1253;-51
2022/09/08 08:15:47;;;;;;;;;;;21.00;43.70;;;;;;452506;263;1258;-51
2022/09/08 08:17:49;;;;;;;;;;;21.00;43.90;;;;;;452334;263;1246;-51
2022/09/08 08:19:52;;;;;;;;;;;21.10;44.00;;;;;;452290;263;1235;-51
2022/09/08 08:21:51;;;;;;;;;;;21.00;44.10;;;;;;452126;262;2338;-50
2022/09/08 08:23:53;;;;;;;;;;;21.10;44.20;;;;;;452188;263;1343;-51
2022/09/08 08:25:54;;;;;;;;;;;21.10;44.10;;;;;;452585;263;2217;-50
2022/09/08 08:27:55;;;;;;;;;;;21.00;44.10;;;;;;452657;263;1233;-51
2022/09/08 08:29:57;;;;;;;;;;;21.10;44.10;;;;;;452346;263;1232;-52
2022/09/08 08:31:58;;;;;;;;;;;21.10;44.20;;;;;;452190;263;1262;-51
2022/09/08 08:33:59;;;;;;;;;;;21.10;44.10;;;;;;452042;263;1366;-50
2022/09/08 08:36:01;;;;;;;;;;;21.10;44.00;;;;;;452311;262;1277;-51
2022/09/08 08:38:02;;;;;;;;;;;21.10;44.10;;;;;;451929;263;1425;-51
2022/09/08 08:40:03;;;;;;;;;;;21.10;44.00;;;;;;452071;262;1579;-51
2022/09/08 08:42:05;;;;;;;;;;;21.10;44.10;;;;;;452426;263;1226;-50
2022/09/08 08:44:08;;;;;;;;;;;21.10;43.90;;;;;;452321;263;1237;-51
2022/09/08 08:46:07;;;;;;;;;;;21.20;44.00;;;;;;452218;263;2620;-51
2022/09/08 08:48:09;;;;;;;;;;;21.10;44.10;;;;;;452345;263;1462;-51
2022/09/08 08:50:10;;;;;;;;;;;21.20;43.90;;;;;;452285;262;1297;-51
2022/09/08 08:52:11;;;;;;;;;;;21.20;44.10;;;;;;452252;263;1327;-51
2022/09/08 08:54:13;;;;;;;;;;;21.20;43.90;;;;;;452400;263;1465;-51
2022/09/08 08:56:14;;;;;;;;;;;21.20;44.00;;;;;;452333;263;1356;-51
2022/09/08 08:58:15;;;;;;;;;;;21.20;44.10;;;;;;452271;262;1255;-52
2022/09/08 09:00:18;;;;;;;;;;;21.20;44.20;;;;;;451705;262;1449;-51
2022/09/08 09:02:19;;;;;;;;;;;21.20;44.20;;;;;;452335;263;1474;-51
2022/09/08 09:04:20;;;;;;;;;;;21.20;44.10;;;;;;451705;263;1217;-51
2022/09/08 09:06:22;;;;;;;;;;;21.20;44.10;;;;;;452238;263;2216;-50
2022/09/08 09:08:24;;;;;;;;;;;21.20;44.10;;;;;;452342;263;1111;-51
2022/09/08 09:10:25;;;;;;;;;;;21.20;44.00;;;;;;452307;263;2162;-51
2022/09/08 09:12:26;;;;;;;;;;;21.20;44.10;;;;;;452405;263;1082;-51
2022/09/08 09:14:28;;;;;;;;;;;21.30;44.10;;;;;;452245;263;1180;-51
2022/09/08 09:16:29;;;;;;;;;;;21.30;44.20;;;;;;452245;263;1200;-51
2022/09/08 09:18:30;;;;;;;;;;;21.20;44.10;;;;;;452557;263;1184;-51
2022/09/08 09:20:32;;;;;;;;;;;21.30;44.30;;;;;;452363;263;1094;-51
2022/09/08 09:22:33;;;;;;;;;;;21.20;44.30;;;;;;452677;263;1372;-51
2022/09/08 09:24:35;;;;;;;;;;;21.20;44.30;;;;;;452388;263;1173;-52
2022/09/08 09:26:36;;;;;;;;;;;21.30;44.20;;;;;;452051;263;2689;-52
2022/09/08 09:28:37;;;;;;;;;;;21.20;44.30;;;;;;452347;262;1225;-51
2022/09/08 09:30:38;;;;;;;;;;;21.30;44.30;;;;;;452329;262;1286;-51
2022/09/08 09:32:40;;;;;;;;;;;21.20;44.10;;;;;;452487;263;1294;-51
2022/09/08 09:34:41;;;;;;;;;;;21.20;44.20;;;;;;452219;263;1317;-51
2022/09/08 09:36:42;;;;;;;;;;;21.20;44.20;;;;;;452044;263;1401;-52
2022/09/08 09:38:44;;;;;;;;;;;21.20;44.30;;;;;;452299;263;1302;-51
2022/09/08 09:40:45;;;;;;;;;;;21.20;44.30;;;;;;452248;262;1653;-51
2022/09/08 09:42:47;;;;;;;;;;;21.20;44.40;;;;;;452477;263;1370;-51
2022/09/08 09:44:48;;;;;;;;;;;21.20;44.20;;;;;;452236;263;1259;-51
2022/09/08 09:46:51;;;;;;;;;;;21.20;44.40;;;;;;452314;263;2198;-51
2022/09/08 09:48:51;;;;;;;;;;;21.20;44.50;;;;;;452486;262;1604;-51
2022/09/08 09:50:53;;;;;;;;;;;21.20;44.40;;;;;;452131;263;1357;-51
2022/09/08 09:52:54;;;;;;;;;;;21.20;44.50;;;;;;452670;263;1368;-51
2022/09/08 09:54:56;;;;;;;;;;;21.20;44.50;;;;;;452620;263;1420;-51
2022/09/08 09:56:57;;;;;;;;;;;21.10;44.40;;;;;;452659;263;1226;-51
2022/09/08 09:58:58;;;;;;;;;;;21.20;44.60;;;;;;452236;263;1340;-51
2022/09/08 10:01:00;;;;;;;;;;;21.10;44.60;;;;;;451959;262;1417;-51
2022/09/08 10:03:01;;;;;;;;;;;21.20;44.80;;;;;;452183;263;1232;-51
2022/09/08 10:05:03;;;;;;;;;;;21.10;44.70;;;;;;452131;263;1192;-51
2022/09/08 10:07:04;;;;;;;;;;;21.10;44.90;;;;;;452139;262;2224;-51
2022/09/08 10:09:05;;;;;;;;;;;21.10;44.80;;;;;;452203;263;1109;-51
2022/09/08 10:11:07;;;;;;;;;;;21.10;44.70;;;;;;452125;263;1058;-51
2022/09/08 10:13:08;;;;;;;;;;;21.20;44.80;;;;;;452190;262;1093;-51
2022/09/08 10:15:10;;;;;;;;;;;21.10;44.70;;;;;;452184;263;1334;-51
2022/09/08 10:17:11;;;;;;;;;;;21.10;44.70;;;;;;452294;263;1211;-52
2022/09/08 10:19:12;;;;;;;;;;;21.10;44.80;;;;;;452099;263;1271;-51
2022/09/08 10:21:14;;;;;;;;;;;21.10;44.70;;;;;;452187;263;1338;-52
2022/09/08 10:23:15;;;;;;;;;;;21.10;44.70;;;;;;451996;263;1229;-51
2022/09/08 10:25:16;;;;;;;;;;;21.10;44.70;;;;;;452173;263;1218;-51
2022/09/08 10:27:18;;;;;;;;;;;21.10;44.70;;;;;;451945;263;2178;-52
2022/09/08 10:29:19;;;;;;;;;;;21.10;44.70;;;;;;452360;263;1297;-52
2022/09/08 10:31:20;;;;;;;;;;;21.10;44.80;;;;;;452244;263;1451;-51
2022/09/08 10:33:22;;;;;;;;;;;21.10;44.80;;;;;;452402;263;1317;-51
2022/09/08 10:35:23;;;;;;;;;;;21.10;44.80;;;;;;452368;263;1347;-50
2022/09/08 10:37:24;;;;;;;;;;;21.10;44.70;;;;;;452428;263;1239;-52
2022/09/08 10:39:26;;;;;;;;;;;21.10;44.80;;;;;;452362;263;1547;-51
2022/09/08 10:41:27;;;;;;;;;;;21.10;44.80;;;;;;452662;263;1199;-52
2022/09/08 10:43:28;;;;;;;;;;;21.10;44.70;;;;;;452387;263;1252;-52
2022/09/08 10:45:30;;;;;;;;;;;21.10;44.80;;;;;;452689;262;1111;-51
2022/09/08 10:47:31;;;;;;;;;;;21.10;44.80;;;;;;452279;263;2229;-51
2022/09/08 10:49:32;;;;;;;;;;;21.10;44.80;;;;;;452702;263;1238;-52
2022/09/08 10:51:35;;;;;;;;;;;21.10;44.80;;;;;;452784;263;1177;-52
2022/09/08 10:53:35;;;;;;;;;;;21.10;44.80;;;;;;452464;263;1553;-51
2022/09/08 10:55:36;;;;;;;;;;;21.10;44.80;;;;;;452608;263;1132;-51
2022/09/08 10:57:38;;;;;;;;;;;21.10;44.70;;;;;;452012;263;1332;-51
2022/09/08 10:59:40;;;;;;;;;;;21.10;44.80;;;;;;452426;263;1350;-51
2022/09/08 11:01:41;;;;;;;;;;;21.10;44.90;;;;;;452412;263;1221;-51
2022/09/08 11:03:42;;;;;;;;;;;21.10;44.80;;;;;;452370;263;1224;-52
2022/09/08 11:05:44;;;;;;;;;;;21.10;44.90;;;;;;452541;263;1300;-51
2022/09/08 11:07:45;;;;;;;;;;;21.10;44.80;;;;;;452486;263;2221;-52
2022/09/08 11:09:46;;;;;;;;;;;21.10;44.80;;;;;;452481;263;1237;-50
2022/09/08 11:11:48;;;;;;;;;;;21.10;44.70;;;;;;452352;263;1249;-51
2022/09/08 11:13:49;;;;;;;;;;;21.10;44.80;;;;;;452401;263;1282;-51
2022/09/08 11:15:50;;;;;;;;;;;21.10;44.80;;;;;;452215;263;1364;-52
2022/09/08 11:17:52;;;;;;;;;;;21.10;44.70;;;;;;452425;263;1208;-51
2022/09/08 11:19:53;;;;;;;;;;;21.20;44.60;;;;;;452574;263;1211;-51
2022/09/08 11:21:55;;;;;;;;;;;21.10;44.60;;;;;;452594;263;1271;-51
2022/09/08 11:23:56;;;;;;;;;;;21.10;44.60;;;;;;452438;263;1210;-52
2022/09/08 11:25:57;;;;;;;;;;;21.10;44.70;;;;;;452285;263;1267;-51
2022/09/08 11:27:59;;;;;;;;;;;21.10;44.90;;;;;;452212;263;2141;-51
2022/09/08 11:30:00;;;;;;;;;;;21.10;44.80;;;;;;452424;263;1234;-51
2022/09/08 11:32:02;;;;;;;;;;;21.10;44.70;;;;;;452222;263;1104;-52
2022/09/08 11:34:03;;;;;;;;;;;21.10;44.70;;;;;;452181;263;1504;-51
2022/09/08 11:36:04;;;;;;;;;;;21.10;44.60;;;;;;452078;263;1253;-51
2022/09/08 11:38:06;;;;;;;;;;;21.10;44.80;;;;;;452018;263;1277;-51
2022/09/08 11:40:08;;;;;;;;;;;21.10;44.90;;;;;;452054;263;1226;-52
2022/09/08 11:42:08;;;;;;;;;;;21.10;44.90;;;;;;451997;263;1783;-51
2022/09/08 11:44:10;;;;;;;;;;;21.10;45.00;;;;;;452232;263;1191;-51
2022/09/08 11:46:11;;;;;;;;;;;21.10;44.90;;;;;;452065;263;1408;-51
2022/09/08 11:48:12;;;;;;;;;;;21.10;45.00;;;;;;452118;263;2146;-51
2022/09/08 11:50:13;;;;;;;;;;;21.10;44.90;;;;;;452303;262;1247;-50
2022/09/08 11:52:15;;;;;;;;;;;21.10;44.80;;;;;;452050;263;1270;-51
2022/09/08 11:54:17;;;;;;;;;;;21.10;44.90;;;;;;452258;263;1402;-50
2022/09/08 11:56:17;;;;;;;;;;;21.10;45.00;;;;;;452109;263;2239;-51
2022/09/08 11:58:19;;;;;;;;;;;21.10;44.80;;;;;;452361;263;1261;-52
2022/09/08 12:00:21;;;;;;;;;;;21.10;44.90;;;;;;452254;263;1387;-52
2022/09/08 12:02:21;;;;;;;;;;;21.10;44.70;;;;;;452098;263;1529;-51